Time;durP1;ratioP1;P1;durP2;ratioP2;P2;SDS_P1;SDS_P2;PMS_P1;PMS_P2;Temp;Humidity;BMP_temperature;BMP_pressure;BME280_temperature;BME280_humidity;BME280_pressure;Samples;Min_cycle;Max_cycle;Signal;HPM_P1;HPM_P2
2022/01/05 00:01:25;;;;;;;12.00;2.33;;;;;;;;;;4935069;29;20477;-80
2022/01/05 00:03:52;;;;;;;10.90;2.42;;;;;;;;;;4903726;29;20472;-81
2022/01/05 00:06:18;;;;;;;9.65;2.38;;;;;;;;;;4904836;29;20480;-80
2022/01/05 00:08:44;;;;;;;13.00;2.47;;;;;;;;;;4902460;29;20944;-81
2022/01/05 00:11:10;;;;;;;11.35;2.25;;;;;;;;;;4888216;29;20453;-81
2022/01/05 00:13:37;;;;;;;10.57;2.35;;;;;;;;;;4935486;29;20436;-81
2022/01/05 00:16:03;;;;;;;11.10;2.58;;;;;;;;;;4904884;29;20433;-81
2022/01/05 00:18:29;;;;;;;10.52;2.75;;;;;;;;;;4904251;29;20452;-81
2022/01/05 00:20:56;;;;;;;11.07;2.40;;;;;;;;;;4904190;29;20444;-81
2022/01/05 00:23:22;;;;;;;12.02;2.33;;;;;;;;;;4904777;29;20448;-81
2022/01/05 00:25:48;;;;;;;14.10;2.70;;;;;;;;;;4904074;29;20447;-81
2022/01/05 00:28:14;;;;;;;11.32;2.58;;;;;;;;;;4905484;29;20452;-80
2022/01/05 00:30:40;;;;;;;12.25;2.42;;;;;;;;;;4917858;29;20514;-80
2022/01/05 00:33:06;;;;;;;11.65;2.33;;;;;;;;;;4904065;29;20443;-81
2022/01/05 00:35:32;;;;;;;14.50;2.90;;;;;;;;;;4903108;29;20552;-80
2022/01/05 00:37:59;;;;;;;16.80;2.92;;;;;;;;;;4911652;29;20429;-81
2022/01/05 00:40:25;;;;;;;12.70;2.95;;;;;;;;;;4905589;29;20464;-81
2022/01/05 00:42:51;;;;;;;12.07;2.80;;;;;;;;;;4911106;29;20437;-80
2022/01/05 00:45:18;;;;;;;18.90;3.65;;;;;;;;;;4955618;28;20442;-81
2022/01/05 00:47:44;;;;;;;13.60;2.90;;;;;;;;;;4921650;29;20427;-80
2022/01/05 00:50:10;;;;;;;16.70;2.97;;;;;;;;;;4921671;29;20443;-80
2022/01/05 00:52:36;;;;;;;15.37;2.87;;;;;;;;;;4922689;29;20423;-80
2022/01/05 00:55:03;;;;;;;16.30;2.78;;;;;;;;;;4922658;29;20471;-81
2022/01/05 00:57:29;;;;;;;13.73;2.83;;;;;;;;;;4923459;29;20442;-81
2022/01/05 00:59:55;;;;;;;19.48;3.10;;;;;;;;;;4952459;28;20435;-81
2022/01/05 01:02:21;;;;;;;14.50;3.30;;;;;;;;;;4923968;29;20443;-81
2022/01/05 01:04:47;;;;;;;15.03;3.07;;;;;;;;;;4921452;29;20431;-81
2022/01/05 01:07:13;;;;;;;16.55;3.08;;;;;;;;;;4907692;29;20503;-81
2022/01/05 01:09:39;;;;;;;16.05;3.35;;;;;;;;;;4921675;29;20435;-80
2022/01/05 01:12:05;;;;;;;13.68;3.50;;;;;;;;;;4920418;29;21120;-81
2022/01/05 01:14:31;;;;;;;12.98;3.08;;;;;;;;;;4923229;29;20440;-81
2022/01/05 01:16:58;;;;;;;14.85;2.85;;;;;;;;;;4938127;29;20437;-79
2022/01/05 01:19:24;;;;;;;17.88;2.58;;;;;;;;;;4955109;28;20872;-81
2022/01/05 01:21:50;;;;;;;15.43;2.78;;;;;;;;;;4921285;29;20516;-80
2022/01/05 01:24:16;;;;;;;13.18;2.88;;;;;;;;;;4939789;29;20439;-81
2022/01/05 01:26:42;;;;;;;14.02;2.95;;;;;;;;;;4905081;29;20836;-81
2022/01/05 01:29:08;;;;;;;12.52;3.00;;;;;;;;;;4905923;29;20423;-81
2022/01/05 01:31:34;;;;;;;15.37;3.13;;;;;;;;;;4906923;29;21004;-81
2022/01/05 01:34:01;;;;;;;19.15;3.17;;;;;;;;;;4920843;29;20427;-81
2022/01/05 01:36:27;;;;;;;11.30;2.80;;;;;;;;;;4921813;29;20433;-80
2022/01/05 01:38:53;;;;;;;17.00;3.53;;;;;;;;;;4921781;29;20466;-80
2022/01/05 01:41:19;;;;;;;17.00;3.10;;;;;;;;;;4925048;29;20442;-80
2022/01/05 01:43:45;;;;;;;12.45;2.97;;;;;;;;;;4921178;29;20475;-80
2022/01/05 01:46:11;;;;;;;12.50;2.63;;;;;;;;;;4921074;29;20435;-81
2022/01/05 01:48:37;;;;;;;13.70;3.30;;;;;;;;;;4924971;29;20458;-81
2022/01/05 01:51:04;;;;;;;16.70;3.03;;;;;;;;;;4940982;29;20431;-81
2022/01/05 01:53:30;;;;;;;14.68;2.83;;;;;;;;;;4941233;29;20438;-81
2022/01/05 01:55:58;;;;;;;14.95;2.85;;;;;;;;;;4924688;29;20461;-80
2022/01/05 01:58:25;;;;;;;12.70;3.15;;;;;;;;;;4925810;29;20442;-80
2022/01/05 02:00:51;;;;;;;15.15;3.20;;;;;;;;;;4925887;29;20518;-81
2022/01/05 02:03:18;;;;;;;12.43;3.00;;;;;;;;;;4937188;29;20432;-81
2022/01/05 02:05:44;;;;;;;14.40;2.90;;;;;;;;;;4922388;29;20518;-80
2022/01/05 02:08:10;;;;;;;14.68;3.30;;;;;;;;;;4956771;28;20471;-80
2022/01/05 02:10:36;;;;;;;16.40;3.13;;;;;;;;;;4924766;29;20432;-80
2022/01/05 02:13:02;;;;;;;15.40;3.08;;;;;;;;;;4924363;29;20443;-80
2022/01/05 02:15:29;;;;;;;14.23;3.60;;;;;;;;;;4925004;29;20436;-81
2022/01/05 02:20:41;;;;;;;15.15;3.00;;;;;;;;;;4893914;29;20485;-80
2022/01/05 02:23:07;;;;;;;16.73;3.47;;;;;;;;;;4925759;29;20435;-80
2022/01/05 02:25:33;;;;;;;15.48;3.15;;;;;;;;;;4923804;29;20450;-79
2022/01/05 02:27:59;;;;;;;15.73;3.13;;;;;;;;;;4926477;29;20483;-80
2022/01/05 02:30:27;;;;;;;16.60;2.87;;;;;;;;;;4924405;29;20447;-80
2022/01/05 02:32:53;;;;;;;12.07;3.13;;;;;;;;;;4939442;29;20665;-80
2022/01/05 02:35:19;;;;;;;19.47;3.73;;;;;;;;;;4920466;29;20427;-80
2022/01/05 02:37:50;;;;;;;17.70;3.22;;;;;;;;;;4955456;28;20471;-80
2022/01/05 02:40:17;;;;;;;15.10;3.10;;;;;;;;;;4925568;29;20467;-80
2022/01/05 02:42:44;;;;;;;17.13;3.28;;;;;;;;;;4922471;29;20475;-80
2022/01/05 02:45:10;;;;;;;12.98;2.90;;;;;;;;;;4926071;29;20451;-80
2022/01/05 02:47:37;;;;;;;15.80;3.20;;;;;;;;;;4956115;28;20581;-79
2022/01/05 02:50:04;;;;;;;14.87;3.50;;;;;;;;;;4924458;29;20533;-80
2022/01/05 02:52:30;;;;;;;13.68;3.33;;;;;;;;;;4923244;29;20479;-80
2022/01/05 02:54:56;;;;;;;14.90;3.40;;;;;;;;;;4918692;29;20435;-80
2022/01/05 02:57:23;;;;;;;15.48;3.75;;;;;;;;;;4922844;29;20442;-80
2022/01/05 02:59:49;;;;;;;16.38;4.25;;;;;;;;;;4923367;29;20506;-80
2022/01/05 03:02:15;;;;;;;16.77;3.53;;;;;;;;;;4908119;29;20427;-80
2022/01/05 03:04:41;;;;;;;17.15;3.13;;;;;;;;;;4908302;29;20446;-80
2022/01/05 03:07:08;;;;;;;14.05;2.92;;;;;;;;;;4924641;29;20431;-80
2022/01/05 03:09:35;;;;;;;16.47;3.60;;;;;;;;;;4908075;29;20463;-80
2022/01/05 03:12:01;;;;;;;13.73;3.60;;;;;;;;;;4908838;28;20478;-80
2022/01/05 03:14:27;;;;;;;13.20;3.60;;;;;;;;;;4914019;29;21237;-80
2022/01/05 03:16:53;;;;;;;15.60;3.42;;;;;;;;;;4891459;29;20467;-80
2022/01/05 03:19:19;;;;;;;16.55;3.15;;;;;;;;;;4893093;29;20499;-80
2022/01/05 03:21:46;;;;;;;14.17;3.13;;;;;;;;;;4922620;29;20517;-80
2022/01/05 03:24:12;;;;;;;12.93;3.20;;;;;;;;;;4908628;29;20483;-80
2022/01/05 03:26:38;;;;;;;12.93;2.70;;;;;;;;;;4923379;29;20528;-80
2022/01/05 03:29:04;;;;;;;15.57;2.88;;;;;;;;;;4923955;29;20423;-81
2022/01/05 03:31:30;;;;;;;13.18;2.55;;;;;;;;;;4923109;29;20590;-80
2022/01/05 03:33:56;;;;;;;11.93;2.90;;;;;;;;;;4920240;29;20427;-79
2022/01/05 03:36:22;;;;;;;14.50;2.65;;;;;;;;;;4924814;29;20840;-80
2022/01/05 03:38:48;;;;;;;13.05;2.92;;;;;;;;;;4907004;29;20502;-79
2022/01/05 03:41:14;;;;;;;11.18;2.40;;;;;;;;;;4922483;29;20443;-80
2022/01/05 03:43:41;;;;;;;11.57;3.13;;;;;;;;;;4916626;29;20433;-81
2022/01/05 03:46:07;;;;;;;16.00;3.85;;;;;;;;;;4904862;29;20456;-80
2022/01/05 03:48:33;;;;;;;12.98;2.85;;;;;;;;;;4906799;29;20456;-80
2022/01/05 03:50:59;;;;;;;13.75;2.80;;;;;;;;;;4905151;29;20433;-81
2022/01/05 03:53:25;;;;;;;14.27;2.90;;;;;;;;;;4920304;29;20468;-80
2022/01/05 03:55:52;;;;;;;14.38;3.00;;;;;;;;;;4889017;29;20453;-80
2022/01/05 03:58:18;;;;;;;15.18;2.63;;;;;;;;;;4904637;29;20437;-80
2022/01/05 04:00:48;;;;;;;14.57;3.22;;;;;;;;;;4903730;29;20484;-80
2022/01/05 04:03:15;;;;;;;11.75;2.55;;;;;;;;;;4906490;29;20468;-80
2022/01/05 04:05:41;;;;;;;9.18;2.03;;;;;;;;;;4889206;29;20445;-80
2022/01/05 04:08:07;;;;;;;10.20;2.70;;;;;;;;;;4902473;29;20437;-80
2022/01/05 04:10:33;;;;;;;8.13;2.00;;;;;;;;;;4935692;29;20481;-80
2022/01/05 04:13:00;;;;;;;11.57;2.55;;;;;;;;;;4903828;29;20457;-79
2022/01/05 04:15:27;;;;;;;9.52;2.50;;;;;;;;;;4904828;29;20866;-80
2022/01/05 04:17:53;;;;;;;10.68;2.17;;;;;;;;;;4902653;29;20439;-80
2022/01/05 04:20:19;;;;;;;12.03;2.70;;;;;;;;;;4920162;29;20448;-81
2022/01/05 04:22:46;;;;;;;11.18;2.17;;;;;;;;;;4904705;29;20445;-80
2022/01/05 04:25:14;;;;;;;12.07;2.38;;;;;;;;;;4903484;29;21300;-80
2022/01/05 04:27:41;;;;;;;10.18;2.20;;;;;;;;;;4915940;29;20475;-80
2022/01/05 04:30:08;;;;;;;11.73;2.20;;;;;;;;;;4904577;29;20916;-80
2022/01/05 04:32:34;;;;;;;9.40;2.38;;;;;;;;;;4903564;29;20439;-80
2022/01/05 04:35:00;;;;;;;11.15;2.45;;;;;;;;;;4903979;29;20452;-79
2022/01/05 04:37:26;;;;;;;11.65;2.80;;;;;;;;;;4935701;29;20434;-80
2022/01/05 04:39:53;;;;;;;9.65;2.40;;;;;;;;;;4918466;29;20429;-80
2022/01/05 04:42:19;;;;;;;15.10;2.78;;;;;;;;;;4918799;29;20542;-79
2022/01/05 04:44:45;;;;;;;12.77;2.67;;;;;;;;;;4921368;29;20484;-79
2022/01/05 04:47:12;;;;;;;13.87;2.87;;;;;;;;;;4903121;29;20468;-79
2022/01/05 04:49:38;;;;;;;13.47;2.80;;;;;;;;;;4904312;29;20946;-80
2022/01/05 04:52:05;;;;;;;12.95;2.90;;;;;;;;;;4872401;29;20834;-80
2022/01/05 04:54:31;;;;;;;15.05;3.33;;;;;;;;;;4902085;29;20473;-80
2022/01/05 04:56:57;;;;;;;15.23;3.13;;;;;;;;;;4902943;29;20485;-80
2022/01/05 04:59:23;;;;;;;17.08;3.05;;;;;;;;;;4936171;29;20433;-80
2022/01/05 05:01:49;;;;;;;14.75;2.72;;;;;;;;;;4904156;29;20508;-80
2022/01/05 05:04:15;;;;;;;17.55;3.63;;;;;;;;;;4902938;29;20478;-81
2022/01/05 05:06:41;;;;;;;13.10;3.38;;;;;;;;;;4910685;29;20437;-80
2022/01/05 05:09:07;;;;;;;17.88;4.10;;;;;;;;;;4916297;29;20493;-80
2022/01/05 05:11:34;;;;;;;15.77;3.47;;;;;;;;;;4904235;29;21363;-80
2022/01/05 05:14:00;;;;;;;18.50;3.75;;;;;;;;;;4892663;29;21214;-80
2022/01/05 05:16:26;;;;;;;16.15;3.20;;;;;;;;;;4904418;29;20504;-80
2022/01/05 05:18:52;;;;;;;19.92;3.47;;;;;;;;;;4902534;29;20429;-79
2022/01/05 05:21:18;;;;;;;17.47;3.27;;;;;;;;;;4904739;29;20542;-80
2022/01/05 05:23:44;;;;;;;17.52;4.20;;;;;;;;;;4907367;29;20520;-79
2022/01/05 05:26:10;;;;;;;13.45;3.20;;;;;;;;;;4906903;29;20887;-79
2022/01/05 05:28:36;;;;;;;22.02;3.67;;;;;;;;;;4906146;29;20433;-79
2022/01/05 05:31:02;;;;;;;19.25;3.72;;;;;;;;;;4890767;29;20936;-80
2022/01/05 05:33:29;;;;;;;19.57;3.67;;;;;;;;;;4907717;29;20437;-79
2022/01/05 05:35:55;;;;;;;19.08;3.92;;;;;;;;;;4905461;29;20443;-79
2022/01/05 05:38:21;;;;;;;18.05;4.25;;;;;;;;;;4907025;29;20469;-80
2022/01/05 05:40:47;;;;;;;20.80;3.83;;;;;;;;;;4923348;29;20457;-78
2022/01/05 05:43:13;;;;;;;20.83;3.78;;;;;;;;;;4937500;29;20481;-78
2022/01/05 05:45:39;;;;;;;22.27;4.70;;;;;;;;;;4926186;29;20427;-78
2022/01/05 05:48:06;;;;;;;20.77;4.50;;;;;;;;;;4954069;28;20435;-77
2022/01/05 05:50:32;;;;;;;20.70;4.38;;;;;;;;;;4925401;29;20454;-76
2022/01/05 05:52:58;;;;;;;16.63;3.85;;;;;;;;;;4923264;29;20439;-76
2022/01/05 05:55:24;;;;;;;18.50;3.90;;;;;;;;;;4924830;29;20427;-76
2022/01/05 05:57:51;;;;;;;19.52;3.22;;;;;;;;;;4924827;29;20442;-77
2022/01/05 06:00:17;;;;;;;14.97;3.10;;;;;;;;;;4939798;29;21943;-77
2022/01/05 06:02:43;;;;;;;16.83;3.50;;;;;;;;;;4909208;29;20486;-77
2022/01/05 06:05:09;;;;;;;16.77;3.38;;;;;;;;;;4922596;29;20959;-78
2022/01/05 06:07:35;;;;;;;14.82;3.42;;;;;;;;;;4925640;29;20427;-78
2022/01/05 06:10:01;;;;;;;19.48;3.75;;;;;;;;;;4928585;29;20466;-78
2022/01/05 06:12:27;;;;;;;19.15;3.83;;;;;;;;;;4919282;29;20444;-78
2022/01/05 06:14:54;;;;;;;15.95;3.45;;;;;;;;;;4923816;29;20439;-78
2022/01/05 06:17:20;;;;;;;17.00;4.03;;;;;;;;;;4908957;29;20445;-79
2022/01/05 06:19:46;;;;;;;17.58;3.45;;;;;;;;;;4929216;29;20486;-78
2022/01/05 06:22:13;;;;;;;23.45;4.28;;;;;;;;;;4908434;29;20471;-77
2022/01/05 06:24:40;;;;;;;18.75;3.63;;;;;;;;;;4926404;29;20444;-79
2022/01/05 06:27:08;;;;;;;17.80;3.90;;;;;;;;;;4910056;29;20448;-78
2022/01/05 06:29:36;;;;;;;16.45;4.30;;;;;;;;;;4908829;29;20515;-78
2022/01/05 06:32:02;;;;;;;18.48;3.63;;;;;;;;;;4955563;28;20439;-76
2022/01/05 06:34:28;;;;;;;19.52;3.80;;;;;;;;;;4940774;29;20440;-76
2022/01/05 06:36:55;;;;;;;18.30;3.63;;;;;;;;;;4908511;29;20443;-76
2022/01/05 06:39:21;;;;;;;17.08;3.10;;;;;;;;;;4922914;29;20456;-77
2022/01/05 06:41:47;;;;;;;17.98;3.85;;;;;;;;;;4960691;28;20925;-78
2022/01/05 06:44:13;;;;;;;15.85;3.15;;;;;;;;;;4922751;29;20440;-78
2022/01/05 06:46:39;;;;;;;14.77;2.72;;;;;;;;;;4940397;29;20432;-79
2022/01/05 06:49:05;;;;;;;13.97;2.40;;;;;;;;;;4924602;29;20446;-79
2022/01/05 06:51:31;;;;;;;10.90;2.15;;;;;;;;;;4923061;29;20438;-78
2022/01/05 06:53:57;;;;;;;13.98;2.40;;;;;;;;;;4926518;29;20441;-78
2022/01/05 06:56:23;;;;;;;8.32;2.20;;;;;;;;;;4926450;29;20943;-77
2022/01/05 06:58:49;;;;;;;8.10;1.90;;;;;;;;;;4939374;29;20435;-78
2022/01/05 07:01:16;;;;;;;6.97;1.75;;;;;;;;;;4922421;29;20431;-78
2022/01/05 07:03:42;;;;;;;9.70;1.75;;;;;;;;;;4907868;29;20428;-79
2022/01/05 07:06:08;;;;;;;13.40;2.15;;;;;;;;;;4924251;29;20440;-78
2022/01/05 07:08:34;;;;;;;11.48;2.33;;;;;;;;;;4923986;29;20436;-79
2022/01/05 07:11:00;;;;;;;13.40;3.25;;;;;;;;;;4923291;29;20510;-78
2022/01/05 07:13:26;;;;;;;14.38;2.63;;;;;;;;;;4907125;29;20431;-78
2022/01/05 07:15:52;;;;;;;15.50;2.90;;;;;;;;;;4939440;29;20487;-78
2022/01/05 07:18:18;;;;;;;17.27;2.88;;;;;;;;;;4922697;29;20452;-78
2022/01/05 07:21:04;;;;;;;17.23;2.97;;;4.40;99.90;;;;;;4924585;29;20448;-78
2022/01/05 07:23:30;;;;;;;13.50;2.55;;;;;;;;;;4923175;29;20488;-79
2022/01/05 07:25:56;;;;;;;15.32;2.53;;;;;;;;;;4923774;29;20447;-79
2022/01/05 07:28:22;;;;;;;17.48;3.28;;;;;;;;;;4922824;29;20443;-78
2022/01/05 07:30:48;;;;;;;18.00;2.92;;;;;;;;;;4908809;29;20443;-80
2022/01/05 07:33:14;;;;;;;16.58;3.65;;;;;;;;;;4923405;29;20434;-79
2022/01/05 07:35:40;;;;;;;16.85;2.95;;;;;;;;;;4922405;29;20440;-79
2022/01/05 07:38:06;;;;;;;12.82;2.78;;;;;;;;;;4956256;28;20507;-79
2022/01/05 07:40:33;;;;;;;15.30;2.60;;;;;;;;;;4938327;29;20875;-79
2022/01/05 07:42:59;;;;;;;13.50;2.70;;;;;;;;;;4923185;29;20427;-80
2022/01/05 07:48:38;;;;;;;15.23;3.22;;;;;;;;;;4906865;29;20482;-80
2022/01/05 07:51:04;;;;;;;14.70;3.05;;;;;;;;;;4923679;29;20419;-80
2022/01/05 07:53:30;;;;;;;18.02;3.53;;;;;;;;;;4901766;29;20440;-78
2022/01/05 07:55:56;;;;;;;14.88;3.17;;;;;;;;;;4912126;29;20437;-79
2022/01/05 07:58:23;;;;;;;19.98;3.47;;;;;;;;;;4906105;29;20476;-78
2022/01/05 08:00:51;;;;;;;17.85;3.00;;;;;;;;;;4918284;29;20433;-78
2022/01/05 08:03:17;;;;;;;8.32;1.90;;;;;;;;;;4889582;29;20956;-79
2022/01/05 08:05:43;;;;;;;8.20;1.95;;;;;;;;;;4921569;29;20501;-79
2022/01/05 08:08:09;;;;;;;10.00;2.20;;;;;;;;;;4904927;29;20451;-79
2022/01/05 08:10:36;;;;;;;10.70;1.98;;;;;;;;;;4920475;29;20844;-79
2022/01/05 08:13:02;;;;;;;7.60;2.00;;;;;;;;;;4901322;29;20465;-80
2022/01/05 08:15:28;;;;;;;10.43;2.50;;;;;;;;;;4919748;29;20505;-79
2022/01/05 08:17:54;;;;;;;11.27;2.33;;;;;;;;;;4903183;29;20437;-80
2022/01/05 08:20:20;;;;;;;12.67;2.13;;;;;;;;;;4888982;29;20905;-80
2022/01/05 08:22:47;;;;;;;19.60;3.50;;;;;;;;;;4919557;29;20517;-77
2022/01/05 08:25:17;;;;;;;17.58;3.50;;;;;;;;;;4903069;29;20453;-79
2022/01/05 08:27:47;;;;;;;14.98;3.20;;;;;;;;;;4904312;29;20452;-78
2022/01/05 08:30:16;;;;;;;18.08;3.42;;;;;;;;;;4910494;29;20502;-79
2022/01/05 08:32:42;;;;;;;21.00;3.53;;;;;;;;;;4902302;29;20444;-79
2022/01/05 08:35:10;;;;;;;18.03;2.93;;;;;;;;;;4936390;29;20444;-80
2022/01/05 08:37:36;;;;;;;18.07;3.23;;;;;;;;;;4920206;29;20464;-78
2022/01/05 08:40:04;;;;;;;18.75;3.15;;;;;;;;;;4904092;29;20440;-79
2022/01/05 08:42:30;;;;;;;10.05;2.55;;;;;;;;;;4903393;29;20441;-79
2022/01/05 08:44:57;;;;;;;13.02;2.45;;;;;;;;;;4934076;29;20450;-79
2022/01/05 08:47:23;;;;;;;9.60;1.90;;;;;;;;;;4939585;29;20427;-79
2022/01/05 08:49:49;;;;;;;14.07;2.53;;;;;;;;;;4906822;29;20443;-80
2022/01/05 08:52:16;;;;;;;10.52;2.72;;;;;;;;;;4922815;29;20430;-81
2022/01/05 08:54:42;;;;;;;10.82;2.00;;;;;;;;;;4941127;29;20427;-80
2022/01/05 08:57:08;;;;;;;10.88;2.25;;;;;;;;;;4938938;29;20501;-80
2022/01/05 08:59:36;;;;;;;12.95;2.42;;;;;;;;;;4926669;28;20421;-80
2022/01/05 09:02:03;;;;;;;10.95;3.03;;;;;;;;;;4940809;29;20498;-80
2022/01/05 09:04:29;;;;;;;13.32;2.63;;;;;;;;;;4923705;29;20467;-80
2022/01/05 09:06:55;;;;;;;11.30;2.60;;;;;;;;;;4923938;29;20857;-81
2022/01/05 09:09:21;;;;;;;13.70;3.00;;;;;;;;;;4922861;29;20438;-82
2022/01/05 09:11:48;;;;;;;14.73;2.83;;;;;;;;;;4904737;29;20464;-83
2022/01/05 09:14:14;;;;;;;13.90;3.20;;;;;;;;;;4907538;29;20675;-83
2022/01/05 09:16:40;;;;;;;13.90;3.30;;;;;;;;;;4892535;29;20435;-84
2022/01/05 09:19:06;;;;;;;14.37;2.70;;;;;;;;;;4906080;29;20423;-84
2022/01/05 09:21:33;;;;;;;15.40;2.90;;;;;;;;;;4902663;29;20431;-84
2022/01/05 09:23:59;;;;;;;16.73;4.57;;;;;;;;;;4923990;29;20427;-83
2022/01/05 09:26:25;;;;;;;14.40;4.57;;;;;;;;;;4920975;29;20435;-83
2022/01/05 09:28:51;;;;;;;14.38;3.35;;;;;;;;;;4955897;28;20435;-84
2022/01/05 09:31:17;;;;;;;16.48;4.35;;;;;;;;;;4940730;29;20522;-84
2022/01/05 09:33:43;;;;;;;23.08;6.43;;;;;;;;;;4924637;29;20436;-82
2022/01/05 09:36:16;;;;;;;19.52;4.68;;;;;;;;;;4922434;29;20438;-82
2022/01/05 09:44:02;;;;;;;26.60;7.50;;;;;;;;;;4937444;29;20420;-85
2022/01/05 09:46:33;;;;;;;29.48;6.97;;;;;;;;;;4923805;29;20447;-83
2022/01/05 09:49:06;;;;;;;25.70;7.03;;;;;;;;;;4923185;29;20436;-83
2022/01/05 09:51:34;;;;;;;46.33;21.70;;;5.80;99.90;;;;;;4920480;29;20460;-84
2022/01/05 09:54:01;;;;;;;44.42;23.15;;;6.20;99.90;;;;;;4922390;29;20931;-84
2022/01/05 09:56:30;;;;;;;41.53;16.75;;;;;;;;;;4953070;28;21045;-83
2022/01/05 09:59:00;;;;;;;35.20;10.70;;;;;;;;;;4923545;29;20427;-82
2022/01/05 10:01:27;;;;;;;28.70;7.85;;;;;;;;;;4939039;29;20470;-84
2022/01/05 10:03:53;;;;;;;28.45;9.00;;;;;;;;;;4956111;28;20435;-84
2022/01/05 10:06:19;;;;;;;28.35;7.95;;;;;;;;;;4939240;28;20456;-83
2022/01/05 10:08:45;;;;;;;23.70;5.07;;;;;;;;;;4959411;28;20494;-85
2022/01/05 10:11:12;;;;;;;25.77;5.07;;;;;;;;;;4926630;29;20443;-82
2022/01/05 10:13:38;;;;;;;20.75;4.53;;;;;;;;;;4926516;29;20486;-83
2022/01/05 10:16:05;;;;;;;21.42;4.47;;;;;;;;;;4926458;29;20494;-83
2022/01/05 10:18:41;;;;;;;25.20;4.78;;;;;;;;;;4941740;29;20506;-84
2022/01/05 10:21:07;;;;;;;22.52;4.43;;;;;;;;;;4926389;29;20469;-83
2022/01/05 10:23:47;;;;;;;25.95;5.18;;;;;;;;;;4925035;29;20458;-83
2022/01/05 10:26:24;;;;;;;20.48;4.18;;;;;;;;;;4924687;29;20467;-83
2022/01/05 10:28:52;;;;;;;19.67;4.30;;;;;;;;;;4945992;29;20435;-82
2022/01/05 10:31:25;;;;;;;23.73;4.55;;;;;;;;;;4946943;29;20483;-83
2022/01/05 10:33:52;;;;;;;18.73;4.30;;;;;;;;;;4945016;29;20475;-81
2022/01/05 10:36:18;;;;;;;24.77;4.43;;;;;;;;;;4907718;29;20789;-85
2022/01/05 10:38:55;;;;;;;21.45;4.28;;;;;;;;;;4942946;29;20427;-83
2022/01/05 10:41:22;;;;;;;21.05;4.40;;;;;;;;;;4942679;29;20765;-88
2022/01/05 10:44:12;;;;;;;23.27;4.75;;;6.70;99.90;;;;;;4926631;29;20874;-85
2022/01/05 10:46:41;;;;;;;20.05;3.78;;;;;;;;;;4927280;29;20491;-85
2022/01/05 10:49:07;;;;;;;22.17;4.50;;;;;;;;;;4927234;29;20438;-86
2022/01/05 10:51:34;;;;;;;19.85;4.25;;;;;;;;;;4943933;29;20585;-86
2022/01/05 10:54:14;;;;;;;19.58;4.15;;;;;;;;;;4927672;29;20442;-86
2022/01/05 10:56:41;;;;;;;22.30;3.90;;;;;;;;;;4910058;29;20547;-83
2022/01/05 10:59:07;;;;;;;19.23;3.63;;;;;;;;;;4942370;29;20451;-85
2022/01/05 11:01:33;;;;;;;19.40;3.25;;;;;;;;;;4911554;29;20434;-84
2022/01/05 11:04:14;;;;;;;19.27;4.65;;;;;;;;;;4911420;29;20435;-88
2022/01/05 11:07:02;;;;;;;15.35;3.78;;;7.10;99.90;;;;;;4928070;29;20473;-86
2022/01/05 11:09:29;;;;;;;16.95;3.50;;;;;;;;;;4924574;29;20549;-85
2022/01/05 11:11:55;;;;;;;16.00;3.67;;;;;;;;;;4942914;29;20446;-85
2022/01/05 11:14:31;;;;;;;15.60;3.40;;;;;;;;;;4957334;29;20475;-83
2022/01/05 11:17:04;;;;;;;15.13;3.30;;;;;;;;;;4944290;29;20511;-82
2022/01/05 11:19:31;;;;;;;13.25;3.05;;;;;;;;;;4954636;28;20435;-85
2022/01/05 11:22:03;;;;;;;13.30;2.97;;;;;;;;;;4959839;28;20808;-83
2022/01/05 11:24:34;;;;;;;15.43;3.13;;;;;;;;;;4958135;28;20438;-82
2022/01/05 11:27:01;;;;;;;14.77;3.60;;;;;;;;;;4958320;28;20431;-86
2022/01/05 11:29:27;;;;;;;15.90;3.28;;;;;;;;;;4910730;29;20452;-85
2022/01/05 11:31:57;;;;;;;17.75;3.30;;;;;;;;;;4927347;29;20463;-84
2022/01/05 11:34:23;;;;;;;17.33;3.92;;;;;;;;;;4926238;29;20443;-84
2022/01/05 11:36:50;;;;;;;19.08;3.80;;;;;;;;;;4926330;29;20442;-83
2022/01/05 11:39:18;;;;;;;18.90;4.45;;;;;;;;;;4942062;29;20427;-84
2022/01/05 11:41:46;;;;;;;17.67;3.83;;;;;;;;;;4942055;29;20467;-84
2022/01/05 11:44:12;;;;;;;21.15;4.38;;;;;;;;;;4923835;29;20435;-82
2022/01/05 11:46:42;;;;;;;20.73;4.07;;;;;;;;;;4956812;28;20475;-82
2022/01/05 11:49:11;;;;;;;19.60;3.75;;;;;;;;;;4952804;28;20431;-82
2022/01/05 11:51:45;;;;;;;14.35;3.50;;;;;;;;;;4931199;29;20401;-82
2022/01/05 11:54:17;;;;;;;13.07;3.10;;;;;;;;;;4954851;28;20466;-84
2022/01/05 11:56:44;;;;;;;10.88;2.50;;;;;;;;;;4923904;29;20439;-83
2022/01/05 11:59:33;;;;;;;12.80;2.78;;;;;;;;;;4924540;29;20506;-84
2022/01/05 12:02:00;;;;;;;12.52;2.65;;;;;;;;;;4952481;29;20431;-83
2022/01/05 12:04:27;;;;;;;12.70;2.72;;;;;;;;;;4941351;29;20463;-83
2022/01/05 12:06:55;;;;;;;12.32;2.47;;;;;;;;;;4927715;29;20441;-82
2022/01/05 12:09:27;;;;;;;11.23;3.20;;;;;;;;;;4944184;29;20487;-83
2022/01/05 12:11:54;;;;;;;15.90;3.58;;;;;;;;;;4924709;29;20451;-82
2022/01/05 12:14:23;;;;;;;19.13;3.57;;;;;;;;;;4908204;29;20497;-83
2022/01/05 12:17:07;;;;;;;19.20;4.25;;;;;;;;;;4939512;29;20467;-83
2022/01/05 12:19:56;;;;;;;18.13;4.10;;;;;;;;;;4956756;28;21033;-83
2022/01/05 12:22:22;;;;;;;18.05;3.92;;;;;;;;;;4938247;29;20424;-83
2022/01/05 12:24:54;;;;;;;14.93;3.35;;;;;;;;;;4925453;29;20446;-83
2022/01/05 12:27:22;;;;;;;15.02;3.53;;;;;;;;;;4925006;29;20453;-83
2022/01/05 12:29:48;;;;;;;18.63;4.13;;;;;;;;;;4942913;29;20476;-83
2022/01/05 12:32:41;;;;;;;21.30;4.00;;;;;;;;;;4942553;29;20431;-82
2022/01/05 12:35:17;;;;;;;20.75;3.83;;;;;;;;;;4935599;29;20473;-81
2022/01/05 12:37:43;;;;;;;20.00;4.00;;;;;;;;;;4942981;29;20451;-81
2022/01/05 12:40:29;;;;;;;20.40;4.03;;;;;;;;;;4941929;29;20434;-83
2022/01/05 12:43:07;;;;;;;17.90;4.47;;;;;;;;;;4922778;29;20890;-83
2022/01/05 12:45:45;;;;;;;18.83;4.10;;;;;;;;;;4929058;29;20445;-82
2022/01/05 12:48:30;;;;;;;19.67;3.85;;;;;;;;;;4924108;29;20443;-82
2022/01/05 12:51:25;;;;;;;16.10;4.10;;;;;;;;;;4954114;28;20443;-82
2022/01/05 12:53:52;;;;;;;18.93;3.73;;;;;;;;;;4918902;29;20428;-82
2022/01/05 12:56:18;;;;;;;22.27;3.85;;;7.60;99.90;;;;;;4942137;28;20475;-82
2022/01/05 12:58:47;;;;;;;19.27;3.95;;;;;;;;;;4947684;28;20453;-82
2022/01/05 13:01:13;;;;;;;21.35;4.63;;;;;;;;;;4937718;29;20442;-83
2022/01/05 13:03:40;;;;;;;18.38;4.10;;;;;;;;;;4955282;28;20443;-80
2022/01/05 13:06:25;;;;;;;19.17;4.20;;;;;;;;;;4906639;29;20442;-81
2022/01/05 13:08:56;;;;;;;20.60;4.80;;;;;;;;;;4941950;29;20885;-82
2022/01/05 13:11:32;;;;;;;18.20;3.75;;;;;;;;;;4926528;29;20466;-83
2022/01/05 13:14:17;;;;;;;18.30;3.95;;;;;;;;;;4924065;29;20435;-82
2022/01/05 13:16:44;;;;;;;21.65;4.28;;;;;;;;;;4946027;29;20834;-81
2022/01/05 13:19:31;;;;;;;23.15;6.45;;;;;;;;;;4944073;29;20856;-82
2022/01/05 13:22:02;;;;;;;39.85;19.10;;;;;;;;;;4939522;29;20519;-82
2022/01/05 13:24:42;;;;;;;28.73;8.77;;;;;;;;;;4915123;29;20492;-83
2022/01/05 13:27:09;;;;;;;32.72;12.65;;;;;;;;;;4922838;29;20447;-81
2022/01/05 13:29:36;;;;;;;41.63;14.75;;;;;;;;;;4955459;28;20470;-80
2022/01/05 13:32:04;;;;;;;37.50;16.30;;;;;;;;;;4925741;29;20423;-80
2022/01/05 13:34:31;;;;;;;19.92;5.22;;;;;;;;;;4941351;29;21263;-82
2022/01/05 13:36:57;;;;;;;18.17;4.45;;;;;;;;;;4927839;29;20487;-79
2022/01/05 13:39:44;;;;;;;12.15;3.30;;;;;;;;;;4924305;29;20443;-80
2022/01/05 13:42:14;;;;;;;0.20;0.20;;;;;;;;;;4942076;29;20457;-84
2022/01/05 13:44:41;;;;;;;1.30;1.20;;;;;;;;;;4946865;29;20503;-82
2022/01/05 13:47:09;;;;;;;0.10;0.10;;;;;;;;;;4925667;29;20467;-81
2022/01/05 13:49:36;;;;;;;0.50;0.40;;;;;;;;;;4939642;29;20431;-82
2022/01/05 13:52:02;;;;;;;0.80;0.80;;;;;;;;;;4926825;29;20435;-82
2022/01/05 13:54:28;;;;;;;0.82;0.63;;;;;;;;;;4923597;29;20452;-82
2022/01/05 13:56:54;;;;;;;0.30;0.30;;;;;;;;;;4963380;28;20431;-83
2022/01/05 13:59:20;;;;;;;0.15;0.15;;;;;;;;;;4931441;29;20435;-84
2022/01/05 14:01:59;;;;;;;0.38;0.38;;;;;;;;;;4930520;29;20431;-83
2022/01/05 14:04:25;;;;;;;0.77;0.77;;;;;;;;;;4925679;29;20451;-84
2022/01/05 14:07:01;;;;;;;1.10;1.00;;;;;;;;;;4940504;28;20423;-83
2022/01/05 14:09:29;;;;;;;0.20;0.20;;;;;;;;;;4922966;29;20431;-84
2022/01/05 14:11:57;;;;;;;0.20;0.20;;;;;;;;;;4927068;29;20447;-83
2022/01/05 14:14:24;;;;;;;1.52;0.30;;;;;;;;;;4923360;29;20459;-83
2022/01/05 14:16:51;;;;;;;0.20;0.20;;;5.70;99.90;;;;;;4953792;28;20428;-83
2022/01/05 14:19:26;;;;;;;0.20;0.20;;;;;;;;;;4923078;29;20423;-82
2022/01/05 14:22:01;;;;;;;0.30;0.30;;;;;;;;;;4941199;29;20450;-83
2022/01/05 14:24:29;;;;;;;0.28;0.28;;;;;;;;;;4924529;29;20428;-82
2022/01/05 14:26:55;;;;;;;1.05;0.82;;;;;;;;;;4924260;29;20435;-82
2022/01/05 14:29:25;;;;;;;0.30;0.30;;;;;;;;;;4920858;29;20427;-81
2022/01/05 14:31:51;;;;;;;0.30;0.30;;;;;;;;;;4920831;29;20512;-83
2022/01/05 14:34:19;;;;;;;2.90;1.10;;;;;;;;;;4924149;29;20771;-82
2022/01/05 14:36:47;;;;;;;0.20;0.20;;;;;;;;;;4923238;29;20954;-83
2022/01/05 14:39:18;;;;;;;2.42;1.10;;;;;;;;;;4917662;29;20479;-82
2022/01/05 14:41:49;;;;;;;0.40;0.40;;;;;;;;;;4938591;29;20443;-83
2022/01/05 14:44:15;;;;;;;0.28;0.28;;;;;;;;;;4921605;29;20473;-82